This is the latest recevied weather packets stored in our database for station/object Wangen. If no packets are shown the sender has not sent any weather packets the latest 10 day(s).
| Time | Temp. | Humidity | Pressure | Rain* | Wind** | Luminosity | Snow |
|---|---|---|---|---|---|---|---|
| 1777984330 | 16.67° C | 69% | 1006.1 hPa | 0 mm | - | - | - |
| 1777982530 | 15.56° C | 76% | 1006.4 hPa | 0 mm | - | - | - |
| 1777980730 | 15° C | 77% | 1006.4 hPa | 0 mm | - | - | - |
| 1777978931 | 14.44° C | 79% | 1006.8 hPa | 0 mm | - | - | - |
| 1777977131 | 14.44° C | 77% | 1006.8 hPa | 0 mm | - | - | - |
| 1777975332 | 15° C | 78% | 1006.6 hPa | 0 mm | - | - | - |
| 1777973532 | 15° C | 79% | 1006.7 hPa | 0 mm | - | - | - |
| 1777971732 | 15.56° C | 78% | 1006.7 hPa | 0 mm | - | - | - |
| 1777969931 | 15° C | 77% | 1006.9 hPa | 0 mm | - | - | - |
| 1777968131 | 14.44° C | 79% | 1007.1 hPa | 0 mm | - | - | - |
| 1777966330 | 13.33° C | 82% | 1007.3 hPa | 0 mm | - | - | - |
| 1777964532 | 12.22° C | 83% | 1007.5 hPa | 0 mm | - | - | - |
| 1777962731 | 11.67° C | 85% | 1007.6 hPa | 0 mm | - | - | - |
| 1777960932 | 9.44° C | 90% | 1007.8 hPa | 0 mm | - | - | - |
| 1777959131 | 8.33° C | 92% | 1007.8 hPa | 0 mm | - | - | - |
| 1777957331 | 7.78° C | 92% | 1007.8 hPa | 0 mm | - | - | - |
| 1777955531 | 7.22° C | 92% | 1007.9 hPa | 0 mm | - | - | - |
| 1777953731 | 7.22° C | 92% | 1008 hPa | 0 mm | - | - | - |
| 1777951931 | 7.78° C | 91% | 1008.2 hPa | 0 mm | - | - | - |
| 1777950134 | 7.78° C | 91% | 1008.4 hPa | 0 mm | - | - | - |
| 1777948331 | 8.33° C | 90% | 1008.6 hPa | 0 mm | - | - | - |
| 1777946531 | 8.33° C | 90% | 1008.6 hPa | 0 mm | - | - | - |
| 1777944731 | 8.89° C | 89% | 1008.9 hPa | 0 mm | - | - | - |
| 1777942932 | 9.44° C | 88% | 1009.2 hPa | 0 mm | - | - | - |
| 1777941129 | 10° C | 87% | 1009.6 hPa | 0 mm | - | - | - |
* Rain since midnight (hover to see other rain measurements)
** Current wind speed in m/s (hover to see current wind gust speed)